Time;durP1;ratioP1;P1;durP2;ratioP2;P2;SDS_P1;SDS_P2;PMS_P1;PMS_P2;Temp;Humidity;BMP_temperature;BMP_pressure;BME280_temperature;BME280_humidity;BME280_pressure;Samples;Min_cycle;Max_cycle;Signal;HPM_P1;HPM_P2
2021/09/20 00:00:37;;;;;;;1.40;1.30;;;11.70;99.90;;;;;;5036064;28;20202;-69
2021/09/20 00:03:02;;;;;;;2.25;1.30;;;11.60;99.90;;;;;;5035411;28;20182;-70
2021/09/20 00:05:28;;;;;;;2.20;1.42;;;11.70;99.90;;;;;;5023715;28;20585;-70
2021/09/20 00:07:55;;;;;;;2.53;1.30;;;11.70;99.90;;;;;;5023121;28;20624;-69
2021/09/20 00:10:21;;;;;;;2.80;1.60;;;11.70;99.90;;;;;;5032793;28;20273;-70
2021/09/20 00:12:47;;;;;;;1.98;1.25;;;11.70;99.90;;;;;;5032064;28;20175;-67
2021/09/20 00:15:13;;;;;;;2.85;1.50;;;11.60;99.90;;;;;;5034246;28;20182;-67
2021/09/20 00:17:39;;;;;;;1.92;1.40;;;11.60;99.90;;;;;;5037481;28;20178;-68
2021/09/20 00:20:07;;;;;;;3.42;1.40;;;11.60;99.90;;;;;;5034905;28;20199;-69
2021/09/20 00:22:33;;;;;;;3.10;1.38;;;11.60;99.90;;;;;;5034620;28;20179;-67
2021/09/20 00:24:59;;;;;;;1.52;1.40;;;11.60;99.90;;;;;;5035935;28;20182;-68
2021/09/20 00:27:24;;;;;;;3.58;1.30;;;11.60;99.90;;;;;;5032065;28;20215;-67
2021/09/20 00:29:52;;;;;;;1.65;1.55;;;11.60;99.90;;;;;;5034330;28;20186;-70
2021/09/20 00:32:18;;;;;;;2.08;1.30;;;11.60;99.90;;;;;;5033657;28;20203;-70
2021/09/20 00:34:44;;;;;;;1.50;1.20;;;11.50;99.90;;;;;;5035752;28;20170;-69
2021/09/20 00:37:11;;;;;;;2.47;1.38;;;11.50;99.90;;;;;;5034254;28;20648;-69
2021/09/20 00:39:37;;;;;;;1.70;1.45;;;11.60;99.90;;;;;;5036508;28;20186;-69
2021/09/20 00:42:03;;;;;;;2.83;1.27;;;11.60;99.90;;;;;;5034804;28;20225;-69
2021/09/20 00:44:29;;;;;;;2.47;1.40;;;11.50;99.90;;;;;;5031966;28;20199;-70
2021/09/20 00:46:54;;;;;;;3.25;1.50;;;11.50;99.90;;;;;;5034638;28;20547;-67
2021/09/20 00:49:20;;;;;;;1.10;1.00;;;11.40;99.90;;;;;;5032827;28;20258;-68
2021/09/20 00:51:45;;;;;;;2.35;1.42;;;11.50;99.90;;;;;;5031203;28;20191;-68
2021/09/20 00:54:11;;;;;;;2.50;1.50;;;11.60;99.90;;;;;;5033122;28;20340;-68
2021/09/20 00:56:37;;;;;;;2.72;1.55;;;11.60;99.90;;;;;;5035270;28;20187;-68
2021/09/20 00:59:03;;;;;;;1.33;1.10;;;11.70;99.90;;;;;;5034957;28;20176;-70
2021/09/20 01:01:28;;;;;;;1.73;1.25;;;11.70;99.90;;;;;;5030898;28;20297;-68
2021/09/20 01:03:54;;;;;;;2.95;1.10;;;11.70;99.90;;;;;;5032137;28;20187;-68
2021/09/20 01:06:20;;;;;;;2.20;1.48;;;11.60;99.90;;;;;;5033139;28;20654;-70
2021/09/20 01:08:45;;;;;;;2.17;1.30;;;11.70;99.90;;;;;;5035294;28;20186;-69
2021/09/20 01:11:11;;;;;;;2.15;1.40;;;11.70;99.90;;;;;;5031022;28;20977;-68
2021/09/20 01:13:37;;;;;;;1.50;1.25;;;11.60;99.90;;;;;;5034843;28;20680;-66
2021/09/20 01:16:03;;;;;;;1.77;1.20;;;11.60;99.90;;;;;;5032409;28;20265;-68
2021/09/20 01:18:28;;;;;;;2.17;1.27;;;11.60;99.90;;;;;;5035034;28;20179;-68
2021/09/20 01:20:54;;;;;;;2.88;1.30;;;11.60;99.90;;;;;;5035576;28;20201;-68
2021/09/20 01:23:20;;;;;;;1.40;1.23;;;11.60;99.90;;;;;;5034107;28;20534;-69
2021/09/20 01:25:45;;;;;;;1.50;1.37;;;11.60;99.90;;;;;;5038429;28;20201;-70
2021/09/20 01:28:11;;;;;;;3.15;1.27;;;11.50;99.90;;;;;;5031538;28;20183;-68
2021/09/20 01:30:37;;;;;;;1.30;1.20;;;11.50;99.90;;;;;;5029405;28;20205;-66
2021/09/20 01:33:02;;;;;;;1.98;1.00;;;11.50;99.90;;;;;;5032267;28;20217;-68
2021/09/20 01:35:29;;;;;;;3.22;1.30;;;11.60;99.90;;;;;;5032952;28;20643;-69
2021/09/20 01:37:55;;;;;;;1.52;1.17;;;11.60;99.90;;;;;;5035170;28;20178;-69
2021/09/20 01:40:21;;;;;;;2.22;1.20;;;11.60;99.90;;;;;;5031315;28;20218;-66
2021/09/20 01:42:47;;;;;;;1.70;1.20;;;11.50;99.90;;;;;;5030892;28;20252;-69
2021/09/20 01:45:15;;;;;;;1.50;1.10;;;11.60;99.90;;;;;;5033463;28;20315;-68
2021/09/20 01:47:42;;;;;;;1.38;1.27;;;11.50;99.90;;;;;;5030386;28;20681;-67
2021/09/20 01:50:10;;;;;;;2.37;1.00;;;11.60;99.90;;;;;;5033421;28;20274;-70
2021/09/20 01:52:36;;;;;;;1.40;1.10;;;11.60;99.90;;;;;;5023255;28;20521;-69
2021/09/20 01:55:03;;;;;;;1.67;1.10;;;11.50;99.90;;;;;;5031671;28;20242;-67
2021/09/20 01:57:29;;;;;;;2.33;0.90;;;11.60;99.90;;;;;;5031341;28;20175;-67
2021/09/20 01:59:54;;;;;;;2.80;1.00;;;11.60;99.90;;;;;;5021653;28;20636;-68
2021/09/20 02:02:20;;;;;;;1.98;1.00;;;11.60;99.90;;;;;;5032749;28;20215;-70
2021/09/20 02:04:46;;;;;;;2.27;1.30;;;11.60;99.90;;;;;;5034595;28;20214;-67
2021/09/20 02:07:11;;;;;;;1.42;1.00;;;11.60;99.90;;;;;;5033014;28;20202;-67
2021/09/20 02:09:37;;;;;;;2.57;1.53;;;11.60;99.90;;;;;;5030478;28;20653;-67
2021/09/20 02:12:03;;;;;;;2.88;1.23;;;11.50;99.90;;;;;;5032481;28;20206;-67
2021/09/20 02:14:29;;;;;;;2.40;1.10;;;11.60;99.90;;;;;;5033588;28;20575;-68
2021/09/20 02:16:54;;;;;;;1.38;1.13;;;11.50;99.90;;;;;;5034614;28;20626;-67
2021/09/20 02:19:20;;;;;;;1.48;1.15;;;11.50;99.90;;;;;;5038943;28;20269;-70
2021/09/20 02:21:46;;;;;;;3.33;1.10;;;11.40;99.90;;;;;;5031787;28;20214;-67
2021/09/20 02:24:11;;;;;;;1.17;1.00;;;11.40;99.90;;;;;;5042016;28;20641;-70
2021/09/20 02:26:38;;;;;;;1.67;1.10;;;11.50;99.90;;;;;;5028374;28;20210;-69
2021/09/20 02:29:04;;;;;;;2.10;1.30;;;11.40;99.90;;;;;;5037735;28;20510;-69
2021/09/20 02:31:30;;;;;;;1.65;1.13;;;11.50;99.90;;;;;;5025587;28;20199;-68
2021/09/20 02:33:56;;;;;;;1.50;1.17;;;11.50;99.90;;;;;;5031603;28;20186;-68
2021/09/20 02:36:22;;;;;;;1.98;1.30;;;11.50;99.90;;;;;;5037189;28;20621;-69
2021/09/20 02:38:48;;;;;;;1.20;1.10;;;11.50;99.90;;;;;;5039008;28;20182;-70
2021/09/20 02:41:14;;;;;;;1.80;1.13;;;11.50;99.90;;;;;;5035648;28;20206;-68
2021/09/20 02:43:40;;;;;;;1.85;1.33;;;11.50;99.90;;;;;;5035799;28;20225;-68
2021/09/20 02:46:05;;;;;;;1.77;1.02;;;11.40;99.90;;;;;;5032788;28;20207;-69
2021/09/20 02:48:31;;;;;;;1.48;1.20;;;11.40;99.90;;;;;;5037812;28;20671;-69
2021/09/20 02:50:57;;;;;;;2.10;1.15;;;11.40;99.90;;;;;;5034092;28;20669;-68
2021/09/20 02:53:23;;;;;;;1.30;1.20;;;11.40;99.90;;;;;;5038166;28;20221;-70
2021/09/20 02:55:48;;;;;;;2.50;1.60;;;11.40;99.90;;;;;;5037619;28;20206;-68
2021/09/20 02:58:14;;;;;;;1.98;1.20;;;11.40;99.90;;;;;;5035662;28;20189;-68
2021/09/20 03:00:40;;;;;;;2.30;1.60;;;11.40;99.90;;;;;;5033949;28;20222;-69
2021/09/20 03:03:07;;;;;;;1.43;1.30;;;11.40;99.90;;;;;;5037208;28;20181;-67
2021/09/20 03:05:34;;;;;;;2.00;1.37;;;11.40;99.90;;;;;;5037020;28;20656;-68
2021/09/20 03:08:00;;;;;;;2.63;1.53;;;11.40;99.90;;;;;;5037763;28;20686;-68
2021/09/20 03:10:25;;;;;;;3.38;1.15;;;11.40;99.90;;;;;;5032942;28;20202;-66
2021/09/20 03:12:51;;;;;;;3.13;1.33;;;11.30;99.90;;;;;;5031410;28;20193;-69
2021/09/20 03:15:16;;;;;;;1.83;1.45;;;11.40;99.90;;;;;;5035823;28;20228;-68
2021/09/20 03:17:42;;;;;;;1.83;1.50;;;11.30;99.90;;;;;;5031839;28;20551;-68
2021/09/20 03:20:09;;;;;;;1.90;1.33;;;11.30;99.90;;;;;;5035863;28;20178;-69
2021/09/20 03:22:34;;;;;;;3.00;1.17;;;11.30;99.90;;;;;;5023682;28;20603;-68
2021/09/20 03:25:00;;;;;;;1.70;1.60;;;11.30;99.90;;;;;;5033063;28;20265;-66
2021/09/20 03:27:26;;;;;;;2.63;1.50;;;11.30;99.90;;;;;;5033669;28;20737;-69
2021/09/20 03:29:51;;;;;;;2.47;1.37;;;11.30;99.90;;;;;;5032961;28;20202;-67
2021/09/20 03:32:17;;;;;;;1.97;1.80;;;11.30;99.90;;;;;;5038697;28;20719;-69
2021/09/20 03:34:43;;;;;;;1.47;1.37;;;11.40;99.90;;;;;;5031341;28;20657;-69
2021/09/20 03:37:08;;;;;;;2.17;1.40;;;11.40;99.90;;;;;;5034457;28;20178;-66
2021/09/20 03:39:34;;;;;;;2.67;1.53;;;11.40;99.90;;;;;;5036157;28;20181;-69
2021/09/20 03:41:59;;;;;;;1.67;1.30;;;11.30;99.90;;;;;;5033702;28;20557;-71
2021/09/20 03:44:25;;;;;;;2.00;1.30;;;11.30;99.90;;;;;;5029745;28;20477;-66
2021/09/20 03:46:51;;;;;;;2.37;1.53;;;11.30;99.90;;;;;;5026588;28;20201;-69
2021/09/20 03:49:16;;;;;;;3.10;1.37;;;11.30;99.90;;;;;;5031611;28;20183;-69
2021/09/20 03:51:42;;;;;;;1.97;1.60;;;11.30;99.90;;;;;;5024244;28;20702;-68
2021/09/20 03:54:07;;;;;;;2.37;1.43;;;11.30;99.90;;;;;;5035376;28;20233;-68
2021/09/20 03:56:33;;;;;;;2.30;1.47;;;11.30;99.90;;;;;;5032956;28;20182;-67
2021/09/20 03:58:59;;;;;;;2.90;1.60;;;11.20;99.90;;;;;;5035791;28;20512;-69
2021/09/20 04:01:24;;;;;;;2.37;1.50;;;11.30;99.90;;;;;;5032230;28;20214;-68
2021/09/20 04:03:50;;;;;;;2.50;1.58;;;11.20;99.90;;;;;;5039509;28;20209;-71
2021/09/20 04:06:15;;;;;;;2.73;1.40;;;11.20;99.90;;;;;;5034300;28;20271;-67
2021/09/20 04:08:41;;;;;;;3.83;1.45;;;11.20;99.90;;;;;;5035392;28;20185;-67
2021/09/20 04:11:07;;;;;;;3.07;1.70;;;11.20;99.90;;;;;;5038053;28;20220;-68
2021/09/20 04:13:33;;;;;;;3.00;1.57;;;11.20;99.90;;;;;;5035620;28;21009;-68
2021/09/20 04:15:58;;;;;;;2.37;1.63;;;11.20;99.90;;;;;;5036223;28;20183;-71
2021/09/20 04:18:26;;;;;;;2.35;1.27;;;11.20;99.90;;;;;;5022767;28;20175;-69
2021/09/20 04:20:53;;;;;;;1.97;1.20;;;11.20;99.90;;;;;;5035424;28;20600;-69
2021/09/20 04:23:21;;;;;;;1.60;1.48;;;11.20;99.90;;;;;;5032462;28;20225;-67
2021/09/20 04:25:48;;;;;;;1.67;1.40;;;11.20;99.90;;;;;;5032887;28;20222;-68
2021/09/20 04:28:14;;;;;;;2.50;1.73;;;11.20;99.90;;;;;;5037916;28;20202;-68
2021/09/20 04:30:43;;;;;;;1.97;1.50;;;11.10;99.90;;;;;;5032199;28;20203;-69
2021/09/20 04:33:11;;;;;;;2.47;1.50;;;11.10;99.90;;;;;;5032726;28;20167;-68
2021/09/20 04:35:37;;;;;;;1.50;1.40;;;11.20;99.90;;;;;;5037832;28;20181;-69
2021/09/20 04:38:02;;;;;;;2.20;1.27;;;11.10;99.90;;;;;;5033907;28;20182;-67
2021/09/20 04:40:28;;;;;;;1.50;1.20;;;11.20;99.90;;;;;;5030539;28;20210;-68
2021/09/20 04:42:53;;;;;;;3.03;1.50;;;11.10;99.90;;;;;;5029732;28;20865;-67
2021/09/20 04:45:19;;;;;;;2.90;1.50;;;11.20;99.90;;;;;;5039615;28;20264;-69
2021/09/20 04:47:45;;;;;;;1.57;1.47;;;11.10;99.90;;;;;;5030292;28;20209;-71
2021/09/20 04:50:12;;;;;;;2.15;1.10;;;11.20;99.90;;;;;;5033886;28;20237;-69
2021/09/20 04:52:37;;;;;;;1.60;1.30;;;11.20;99.90;;;;;;5037731;28;20163;-69
2021/09/20 04:55:04;;;;;;;1.83;1.45;;;11.20;99.90;;;;;;5035298;28;20181;-70
2021/09/20 04:57:30;;;;;;;2.90;1.50;;;11.20;99.90;;;;;;5032279;28;20222;-69
2021/09/20 04:59:55;;;;;;;1.30;1.20;;;11.20;99.90;;;;;;5032242;28;20336;-68
2021/09/20 05:02:21;;;;;;;2.50;1.30;;;11.20;99.90;;;;;;5032106;28;20199;-67
2021/09/20 05:04:46;;;;;;;2.38;1.42;;;11.10;99.90;;;;;;5031291;28;20196;-72
2021/09/20 05:07:12;;;;;;;1.47;1.20;;;11.10;99.90;;;;;;5030017;28;20571;-69
2021/09/20 05:09:37;;;;;;;2.57;1.40;;;11.10;99.90;;;;;;5035020;28;20440;-67
2021/09/20 05:12:03;;;;;;;3.33;1.40;;;11.10;99.90;;;;;;5034258;28;20202;-70
2021/09/20 05:14:29;;;;;;;2.60;1.30;;;11.10;99.90;;;;;;5021936;28;20526;-69
2021/09/20 05:16:58;;;;;;;1.85;1.40;;;11.10;99.90;;;;;;5036794;28;20182;-67
2021/09/20 05:19:23;;;;;;;3.10;1.30;;;11.10;99.90;;;;;;5032134;28;20579;-66
2021/09/20 05:21:49;;;;;;;2.30;1.27;;;11.10;99.90;;;;;;5031711;28;20472;-68
2021/09/20 05:24:15;;;;;;;4.33;1.50;;;11.10;99.90;;;;;;5038590;28;20178;-69
2021/09/20 05:26:40;;;;;;;1.90;1.40;;;11.10;99.90;;;;;;5031564;28;20198;-67
2021/09/20 05:29:06;;;;;;;2.28;1.30;;;11.10;99.90;;;;;;5030129;28;20210;-70
2021/09/20 05:31:31;;;;;;;5.05;1.55;;;11.10;99.90;;;;;;5035067;28;20189;-70
2021/09/20 05:33:57;;;;;;;2.55;1.27;;;11.10;99.90;;;;;;5032261;28;20657;-69
2021/09/20 05:36:22;;;;;;;5.40;1.67;;;11.20;99.90;;;;;;5034029;28;20221;-68
2021/09/20 05:38:48;;;;;;;3.22;1.67;;;11.20;99.90;;;;;;5034328;28;20187;-69
2021/09/20 05:41:14;;;;;;;1.80;1.30;;;11.20;99.90;;;;;;5035660;28;20210;-69
2021/09/20 05:43:39;;;;;;;1.50;1.23;;;11.10;99.90;;;;;;5034352;28;20229;-70
2021/09/20 05:46:06;;;;;;;2.17;1.40;;;11.20;99.90;;;;;;5027020;28;20289;-67
2021/09/20 05:48:32;;;;;;;2.63;1.37;;;11.20;99.90;;;;;;5035921;28;20194;-69
2021/09/20 05:50:57;;;;;;;2.25;1.50;;;11.20;99.90;;;;;;5038704;28;20495;-69
2021/09/20 05:53:23;;;;;;;1.98;1.73;;;11.20;99.90;;;;;;5034956;28;20649;-69
2021/09/20 05:55:49;;;;;;;1.92;1.40;;;11.20;99.90;;;;;;5032895;28;20175;-70
2021/09/20 05:58:15;;;;;;;2.50;1.50;;;11.30;99.90;;;;;;5036942;28;20539;-67
2021/09/20 06:00:41;;;;;;;1.65;1.23;;;11.30;99.90;;;;;;5041656;28;20194;-68
2021/09/20 06:03:06;;;;;;;3.28;1.35;;;11.30;99.90;;;;;;5037398;28;20193;-70
2021/09/20 06:05:37;;;;;;;2.28;1.27;;;11.30;99.90;;;;;;5037324;28;20543;-68
2021/09/20 06:08:03;;;;;;;2.67;1.30;;;11.40;99.90;;;;;;5033571;28;20457;-71
2021/09/20 06:10:28;;;;;;;1.92;1.33;;;11.40;99.90;;;;;;5041636;28;20253;-67
2021/09/20 06:12:54;;;;;;;1.58;1.10;;;11.50;99.90;;;;;;5037818;28;20537;-67
2021/09/20 06:15:20;;;;;;;3.25;1.27;;;11.60;99.90;;;;;;5027892;28;20235;-66
2021/09/20 06:17:45;;;;;;;1.38;1.13;;;11.60;99.90;;;;;;5025068;28;20553;-69
2021/09/20 06:20:12;;;;;;;1.88;1.38;;;11.60;99.90;;;;;;5042736;28;20181;-69
2021/09/20 06:22:37;;;;;;;1.77;1.30;;;11.70;99.90;;;;;;5033829;28;20183;-66
2021/09/20 06:25:04;;;;;;;4.18;1.30;;;11.70;99.90;;;;;;5034895;28;20396;-69
2021/09/20 06:27:30;;;;;;;2.35;1.50;;;11.70;99.90;;;;;;5038183;28;20210;-69
2021/09/20 06:29:55;;;;;;;2.72;1.20;;;11.70;99.90;;;;;;5034497;28;20183;-70
2021/09/20 06:32:21;;;;;;;1.88;1.33;;;11.80;99.90;;;;;;5029762;28;20213;-67
2021/09/20 06:34:47;;;;;;;1.58;1.27;;;11.80;99.90;;;;;;5034711;28;21005;-67
2021/09/20 06:37:13;;;;;;;1.52;1.10;;;11.80;99.90;;;;;;5033655;28;20273;-67
2021/09/20 06:39:39;;;;;;;1.73;1.50;;;11.80;99.90;;;;;;5037728;28;20182;-70
2021/09/20 06:42:06;;;;;;;1.48;1.10;;;11.90;99.90;;;;;;5042665;28;20208;-70
2021/09/20 06:44:32;;;;;;;2.83;1.40;;;11.90;99.90;;;;;;5030776;28;20753;-69
2021/09/20 06:46:58;;;;;;;1.40;1.30;;;11.90;99.90;;;;;;5035920;28;20559;-69
2021/09/20 06:49:24;;;;;;;2.72;1.25;;;12.00;99.90;;;;;;5035853;28;20179;-66
2021/09/20 06:51:51;;;;;;;1.92;1.17;;;11.90;99.90;;;;;;5041958;28;20681;-69
2021/09/20 06:54:20;;;;;;;2.40;1.35;;;11.90;99.90;;;;;;5035675;28;20189;-67
2021/09/20 06:56:47;;;;;;;2.15;1.48;;;12.00;99.90;;;;;;5034361;28;20182;-70
2021/09/20 06:59:13;;;;;;;2.60;1.40;;;12.00;99.90;;;;;;5033936;28;20265;-69
2021/09/20 07:01:38;;;;;;;2.58;1.30;;;12.10;99.90;;;;;;5022433;28;20908;-70
2021/09/20 07:04:05;;;;;;;1.60;1.48;;;12.10;99.90;;;;;;5034920;28;20190;-66
2021/09/20 07:06:31;;;;;;;2.00;1.42;;;12.10;99.90;;;;;;5036526;28;20507;-68
2021/09/20 07:08:57;;;;;;;1.95;1.40;;;12.20;99.90;;;;;;5029314;28;20194;-68
2021/09/20 07:11:23;;;;;;;1.92;1.60;;;12.30;99.90;;;;;;5040176;28;20226;-70
2021/09/20 07:13:49;;;;;;;3.08;1.60;;;12.40;99.90;;;;;;5023383;28;20187;-70
2021/09/20 07:16:15;;;;;;;2.33;1.52;;;12.50;99.90;;;;;;5028989;28;20187;-67
2021/09/20 07:18:40;;;;;;;1.42;1.25;;;12.60;99.90;;;;;;5037983;28;20207;-70
2021/09/20 07:21:06;;;;;;;2.25;1.50;;;12.70;99.90;;;;;;5032455;28;20289;-68
2021/09/20 07:23:32;;;;;;;1.70;1.30;;;12.80;99.90;;;;;;5026030;28;20399;-69
2021/09/20 07:25:57;;;;;;;2.03;1.33;;;12.90;99.90;;;;;;5033898;28;20202;-67
2021/09/20 07:28:23;;;;;;;3.00;1.40;;;13.00;99.90;;;;;;5038895;28;20182;-69
2021/09/20 07:30:49;;;;;;;4.60;1.33;;;13.00;99.90;;;;;;5032817;28;20192;-70
2021/09/20 07:33:14;;;;;;;3.22;1.40;;;13.10;99.90;;;;;;5035105;28;20177;-68
2021/09/20 07:35:40;;;;;;;3.13;1.33;;;13.20;99.90;;;;;;5037304;28;20554;-70
2021/09/20 07:38:07;;;;;;;3.00;1.15;;;13.20;99.90;;;;;;5035709;28;20185;-69
2021/09/20 07:40:34;;;;;;;2.17;1.52;;;13.30;99.90;;;;;;5026610;28;20282;-69
2021/09/20 07:43:00;;;;;;;1.80;1.00;;;13.50;99.90;;;;;;5032231;28;20193;-70
2021/09/20 07:45:26;;;;;;;3.72;1.35;;;13.60;99.90;;;;;;5032623;28;20167;-67
2021/09/20 07:47:52;;;;;;;1.20;1.10;;;13.70;99.90;;;;;;5032561;28;20214;-68
2021/09/20 07:50:18;;;;;;;2.58;1.20;;;13.80;99.90;;;;;;5041355;28;20201;-68
2021/09/20 07:52:45;;;;;;;5.28;1.23;;;13.90;99.90;;;;;;5030112;28;20245;-70
2021/09/20 07:55:12;;;;;;;1.65;0.98;;;14.00;99.90;;;;;;5036367;28;20178;-66
2021/09/20 07:57:38;;;;;;;1.20;1.10;;;14.00;99.90;;;;;;5033427;28;20595;-69
2021/09/20 08:00:05;;;;;;;1.90;1.00;;;13.90;99.90;;;;;;5032603;28;20183;-68
2021/09/20 08:02:31;;;;;;;1.83;1.30;;;14.00;99.90;;;;;;5035319;28;20198;-67
2021/09/20 08:04:56;;;;;;;3.72;1.50;;;14.00;99.90;;;;;;5029692;28;20214;-68
2021/09/20 08:07:22;;;;;;;2.45;1.35;;;14.00;99.90;;;;;;5032724;28;20199;-72
2021/09/20 08:09:47;;;;;;;2.75;1.20;;;13.90;99.90;;;;;;5031294;28;20576;-70
2021/09/20 08:12:13;;;;;;;2.63;1.20;;;13.90;99.90;;;;;;5024314;28;20210;-65
2021/09/20 08:14:41;;;;;;;2.90;1.20;;;13.90;99.90;;;;;;5035466;28;20173;-66
2021/09/20 08:17:07;;;;;;;2.30;1.30;;;14.10;99.90;;;;;;5033994;28;20793;-68
2021/09/20 08:19:33;;;;;;;2.20;1.55;;;13.90;99.90;;;;;;5036517;28;20269;-66
2021/09/20 08:21:59;;;;;;;1.55;1.15;;;13.70;99.90;;;;;;5021714;28;20293;-69
2021/09/20 08:24:24;;;;;;;2.13;1.40;;;13.90;99.90;;;;;;5032068;28;20231;-65
2021/09/20 08:26:50;;;;;;;1.95;1.20;;;14.00;99.90;;;;;;5038132;28;20660;-68
2021/09/20 08:29:15;;;;;;;2.13;1.40;;;14.00;99.90;;;;;;5025963;28;20182;-70
2021/09/20 08:31:41;;;;;;;2.72;1.60;;;14.10;99.90;;;;;;5034752;28;20256;-65
2021/09/20 08:34:07;;;;;;;1.85;1.38;;;14.30;99.90;;;;;;5034873;28;20210;-70
2021/09/20 08:36:33;;;;;;;2.75;1.20;;;14.20;99.90;;;;;;5033818;28;20321;-69
2021/09/20 08:38:58;;;;;;;1.92;1.30;;;14.20;99.90;;;;;;5035069;28;20856;-66
2021/09/20 08:41:24;;;;;;;2.50;1.35;;;14.20;99.90;;;;;;5032679;28;20206;-69
2021/09/20 08:43:50;;;;;;;3.53;1.50;;;14.20;99.90;;;;;;5034229;28;20226;-69
2021/09/20 08:46:15;;;;;;;1.52;1.23;;;14.30;99.90;;;;;;5033947;28;20228;-68
2021/09/20 08:48:45;;;;;;;3.10;1.50;;;14.30;99.90;;;;;;5035676;28;20182;-67
2021/09/20 08:51:13;;;;;;;1.33;1.20;;;14.40;99.90;;;;;;5033865;28;20729;-68
2021/09/20 08:53:40;;;;;;;1.52;1.38;;;14.20;99.90;;;;;;5034269;28;20308;-71
2021/09/20 08:56:06;;;;;;;1.50;1.10;;;14.10;99.90;;;;;;5032628;28;20240;-67
2021/09/20 08:58:32;;;;;;;2.25;1.30;;;14.30;99.90;;;;;;5035527;28;20540;-67
2021/09/20 09:00:58;;;;;;;3.05;1.42;;;14.40;99.90;;;;;;5035508;28;20213;-69
2021/09/20 09:03:25;;;;;;;1.45;1.27;;;14.60;99.90;;;;;;5021448;28;20630;-67
2021/09/20 09:05:51;;;;;;;3.42;1.40;;;14.70;99.90;;;;;;5034268;28;20442;-67
2021/09/20 09:08:18;;;;;;;3.53;1.52;;;14.70;99.90;;;;;;5030470;28;20187;-65
2021/09/20 09:10:57;;;;;;;2.72;1.27;;;14.50;99.90;;;;;;5035724;28;20193;-67
2021/09/20 09:13:36;;;;;;;1.25;1.10;;;14.50;99.90;;;;;;5031658;28;20186;-69
2021/09/20 09:16:19;;;;;;;2.05;1.30;;;14.60;99.90;;;;;;5031050;28;20182;-69
2021/09/20 09:19:10;;;;;;;2.17;1.20;;;14.70;99.90;;;;;;5031545;28;20226;-67
2021/09/20 09:21:39;;;;;;;2.72;1.40;;;14.70;99.90;;;;;;5031187;28;20230;-69
2021/09/20 09:24:17;;;;;;;2.30;1.40;;;14.90;99.90;;;;;;5034360;28;20182;-69
2021/09/20 09:26:57;;;;;;;1.38;1.02;;;14.90;99.90;;;;;;5031860;28;20219;-70
2021/09/20 09:29:23;;;;;;;2.13;1.00;;;15.00;99.90;;;;;;5034560;28;20277;-67
2021/09/20 09:31:56;;;;;;;1.90;1.00;;;15.10;99.90;;;;;;5030796;28;20681;-69
2021/09/20 09:34:27;;;;;;;3.03;1.08;;;15.20;99.90;;;;;;5038364;28;20850;-70
2021/09/20 09:37:06;;;;;;;1.77;1.27;;;15.10;99.90;;;;;;5037937;28;20189;-68
2021/09/20 09:39:32;;;;;;;1.73;1.00;;;15.20;99.90;;;;;;5022165;28;20771;-69
2021/09/20 09:41:58;;;;;;;2.42;1.17;;;15.30;99.90;;;;;;5033218;28;20194;-68
2021/09/20 09:44:29;;;;;;;1.10;1.00;;;15.50;99.90;;;;;;5031839;28;20545;-70
2021/09/20 09:46:55;;;;;;;1.70;1.17;;;15.50;99.90;;;;;;5033801;28;20206;-70
2021/09/20 09:49:23;;;;;;;1.90;1.00;;;15.60;99.90;;;;;;5021950;28;20523;-69
2021/09/20 09:52:02;;;;;;;2.90;0.90;;;15.80;99.90;;;;;;5029720;28;20186;-70
2021/09/20 09:54:33;;;;;;;1.65;1.05;;;15.80;99.90;;;;;;5031450;28;20419;-68
2021/09/20 09:57:21;;;;;;;1.50;1.13;;;16.00;99.90;;;;;;5034762;28;20634;-70
2021/09/20 09:59:58;;;;;;;1.67;0.90;;;15.90;99.90;;;;;;5034497;28;20268;-66
2021/09/20 10:02:35;;;;;;;1.83;1.20;;;15.90;99.90;;;;;;5020751;28;20200;-70
2021/09/20 10:05:04;;;;;;;1.48;0.82;;;15.80;99.90;;;;;;5031893;28;20202;-68
2021/09/20 10:07:45;;;;;;;1.73;1.10;;;15.90;99.90;;;;;;5031424;28;20212;-66
2021/09/20 10:10:15;;;;;;;1.63;1.50;;;15.90;99.90;;;;;;5033175;28;20182;-68
2021/09/20 10:12:43;;;;;;;3.90;1.45;;;15.90;99.90;;;;;;5023862;28;20909;-69
2021/09/20 10:15:11;;;;;;;1.35;1.20;;;15.70;99.90;;;;;;5032286;28;20217;-70
2021/09/20 10:17:37;;;;;;;1.38;0.90;;;15.80;99.90;;;;;;5031795;28;20179;-69
2021/09/20 10:20:04;;;;;;;1.33;1.10;;;15.80;99.90;;;;;;5021808;28;20642;-68
2021/09/20 10:22:30;;;;;;;1.80;1.48;;;15.90;99.90;;;;;;5031595;28;20237;-66
2021/09/20 10:24:58;;;;;;;2.25;1.20;;;16.20;99.90;;;;;;5024814;28;20179;-67
2021/09/20 10:27:26;;;;;;;1.50;1.23;;;16.30;99.90;;;;;;5034036;28;20208;-71
2021/09/20 10:30:04;;;;;;;1.73;1.10;;;16.40;99.90;;;;;;5034617;28;20196;-67
2021/09/20 10:32:31;;;;;;;3.20;1.20;;;16.50;99.90;;;;;;5035904;28;20182;-67
2021/09/20 10:35:24;;;;;;;2.85;1.25;;;16.50;99.90;;;;;;5032864;28;20178;-69
2021/09/20 10:37:59;;;;;;;1.88;1.25;;;16.20;99.90;;;;;;5031614;28;20635;-68
2021/09/20 10:40:25;;;;;;;1.20;1.10;;;16.00;99.90;;;;;;5034981;28;20259;-69
2021/09/20 10:43:05;;;;;;;5.07;1.70;;;15.80;99.90;;;;;;5033860;28;20596;-69
2021/09/20 10:45:37;;;;;;;7.82;1.60;;;15.70;99.90;;;;;;5038883;28;20581;-70
2021/09/20 10:48:28;;;;;;;1.67;1.35;;;15.60;99.90;;;;;;5036881;28;20701;-68
2021/09/20 10:51:01;;;;;;;2.10;1.50;;;15.60;99.90;;;;;;5034556;28;20661;-69
2021/09/20 10:53:33;;;;;;;1.98;1.30;;;15.60;99.90;;;;;;5032344;28;20205;-67
2021/09/20 10:56:06;;;;;;;1.92;1.30;;;15.50;99.90;;;;;;5034429;28;20261;-66
2021/09/20 10:58:51;;;;;;;1.90;1.40;;;15.40;99.90;;;;;;5033771;28;20608;-68
2021/09/20 11:01:19;;;;;;;1.40;1.30;;;15.50;99.90;;;;;;5030853;28;20232;-70
2021/09/20 11:03:49;;;;;;;1.63;1.38;;;15.60;99.90;;;;;;5037073;28;20205;-68
2021/09/20 11:06:21;;;;;;;1.92;1.30;;;15.80;99.90;;;;;;5035992;28;20224;-68
2021/09/20 11:09:08;;;;;;;2.05;1.50;;;15.70;99.90;;;;;;5032169;28;20179;-67
2021/09/20 11:11:37;;;;;;;2.47;1.27;;;15.70;99.90;;;;;;5013176;28;20203;-67
2021/09/20 11:14:05;;;;;;;1.85;1.50;;;15.90;99.90;;;;;;5038506;28;20280;-66
2021/09/20 11:16:55;;;;;;;1.75;1.30;;;15.80;99.90;;;;;;5030883;28;20194;-67
2021/09/20 11:19:24;;;;;;;2.58;1.48;;;16.00;99.90;;;;;;5035843;28;20182;-69
2021/09/20 11:22:11;;;;;;;1.98;1.35;;;16.10;99.90;;;;;;5036149;28;20216;-71
2021/09/20 11:24:44;;;;;;;3.35;1.60;;;16.00;99.90;;;;;;5033253;28;20654;-67
2021/09/20 11:27:14;;;;;;;2.05;1.30;;;16.00;99.90;;;;;;5024699;28;20265;-66
2021/09/20 11:29:41;;;;;;;1.60;1.48;;;15.90;99.90;;;;;;5036649;28;20186;-69
2021/09/20 11:32:07;;;;;;;3.17;1.50;;;15.90;99.90;;;;;;5031930;28;20210;-68
2021/09/20 11:34:36;;;;;;;1.85;1.30;;;15.80;99.90;;;;;;5039667;28;20207;-66
2021/09/20 11:37:20;;;;;;;2.38;1.38;;;16.00;99.90;;;;;;5040943;28;20947;-69
2021/09/20 11:39:51;;;;;;;2.30;1.23;;;16.40;99.90;;;;;;5037725;28;20182;-67
2021/09/20 11:42:20;;;;;;;1.40;1.27;;;16.30;99.90;;;;;;5033163;28;20641;-69
2021/09/20 11:44:51;;;;;;;4.43;1.58;;;16.00;99.90;;;;;;5033026;28;20186;-68
2021/09/20 11:47:22;;;;;;;2.15;1.60;;;15.90;99.90;;;;;;5033666;28;20260;-66
2021/09/20 11:49:51;;;;;;;1.83;1.40;;;15.90;99.90;;;;;;5032950;28;20203;-68
2021/09/20 11:52:34;;;;;;;1.42;1.10;;;15.80;99.90;;;;;;5034486;28;20210;-69
2021/09/20 11:55:01;;;;;;;1.13;1.02;;;15.80;99.90;;;;;;5031750;28;20287;-69
2021/09/20 11:57:30;;;;;;;2.42;1.30;;;15.70;99.90;;;;;;5032800;28;20178;-69
2021/09/20 11:59:59;;;;;;;1.48;1.30;;;15.80;99.90;;;;;;5036089;28;20175;-70
2021/09/20 12:02:39;;;;;;;1.42;0.90;;;16.00;99.90;;;;;;5035510;28;20699;-71
2021/09/20 12:05:07;;;;;;;2.92;1.52;;;16.10;99.90;;;;;;5031617;28;20657;-67
2021/09/20 12:07:45;;;;;;;1.70;1.50;;;16.00;99.90;;;;;;5022680;28;20274;-70
2021/09/20 12:10:12;;;;;;;2.75;1.48;;;15.90;99.90;;;;;;5031024;28;20179;-70
2021/09/20 12:12:38;;;;;;;1.48;1.33;;;15.80;99.90;;;;;;5035193;28;20182;-68
2021/09/20 12:15:13;;;;;;;1.80;1.40;;;15.80;99.90;;;;;;5033811;28;20166;-69
2021/09/20 12:17:48;;;;;;;2.47;1.25;;;16.00;99.90;;;;;;5032195;28;20186;-67
2021/09/20 12:20:15;;;;;;;1.40;1.25;;;16.00;99.90;;;;;;5036743;28;20659;-70
2021/09/20 12:22:43;;;;;;;1.95;1.10;;;15.90;99.90;;;;;;5032648;28;20269;-69
2021/09/20 12:25:22;;;;;;;1.48;1.13;;;16.00;99.90;;;;;;5025031;28;20186;-69
2021/09/20 12:27:48;;;;;;;5.25;1.52;;;16.00;99.90;;;;;;5028986;28;20210;-68
2021/09/20 12:30:19;;;;;;;2.03;1.40;;;15.80;99.90;;;;;;5034117;28;20185;-68
2021/09/20 12:32:45;;;;;;;1.88;1.40;;;15.70;99.90;;;;;;5031524;28;20171;-67
2021/09/20 12:35:11;;;;;;;1.50;1.20;;;15.70;99.90;;;;;;5032115;28;20186;-68
2021/09/20 12:37:37;;;;;;;1.38;1.20;;;15.70;99.90;;;;;;5037628;28;20190;-66
2021/09/20 12:40:23;;;;;;;1.30;1.20;;;15.70;99.90;;;;;;5035153;28;20236;-68
2021/09/20 12:43:10;;;;;;;3.58;1.40;;;15.60;99.90;;;;;;5031734;28;20323;-70
2021/09/20 12:45:42;;;;;;;1.92;1.13;;;15.50;99.90;;;;;;5033617;28;20182;-68
2021/09/20 12:48:17;;;;;;;1.52;1.40;;;15.60;99.90;;;;;;5026855;28;20202;-67
2021/09/20 12:50:47;;;;;;;1.63;1.10;;;15.70;99.90;;;;;;5040699;28;20202;-68